Pagrindinis puslapis
METAR-TAF:

METAR-TAF

Oro uostai :

Korientesas, Argentina

platuma: 27-27S, ilguma: 058-46W, Aukštis: 62 m

Dabartinis oras

Ataskaita buvo paskelbta 12 minutes, ne 14:00 UTC
Vėjas 9 kt iš Rytų/Pietryčių
Temperatūra 19°C
Drėgmė 94%
Slėgis 1002 hPa
Matomumas: 6000 m
Mažai debesys ne aukštis 500 ft
Mažai debesys ne aukštis 4500 ft, Liūtiniai kamuoliniai debesys.
Apsiniaukę ne aukštis 5000 ft
perkūnija, lietus

METAR: SARC 231400Z 11009KT 6000 -TSRA FEW005 FEW045CB OVC050 19/18 Q1002 RMK CB OBS TO S

Laikas: 11:12 (14:12 UTC)


TAF: trūkstamas

Orai ataskaitas ir orų prognozės (METAR, TAF).

turimą stotys yra geltonos ir raudonos taškus žemėlapyje.

Perkelti pele per norėdami pamatyti stoties vardą.

Tada spustelėkite, norėdami matyti oro stebėjimo ir prognozės.

Norėdami pakeisti žemėlapį: spustelėkite ant žalios mygtukų su juodo kryžiaus žemyn,; žalią mygtuką su brūkšneliu, jei norite nutolinti; arba žalių rodyklių gretimoms žemėlapius.


METAR-TAF: